createdAt,value
2018-09-17T00:01:06.978Z,72.50
2018-09-17T00:03:35.093Z,72.70
2018-09-17T00:06:03.240Z,73.00
2018-09-17T00:08:31.342Z,73.10
2018-09-17T00:10:59.471Z,72.90
2018-09-17T00:13:27.574Z,72.90
2018-09-17T00:15:55.709Z,72.80
2018-09-17T00:18:23.857Z,72.70
2018-09-17T00:20:52.061Z,72.60
2018-09-17T00:23:20.187Z,72.60
2018-09-17T00:25:48.344Z,72.50
2018-09-17T00:28:16.440Z,72.60
2018-09-17T00:30:44.561Z,72.80
2018-09-17T00:33:12.703Z,73.10
2018-09-17T00:35:40.821Z,73.30
2018-09-17T00:38:08.965Z,73.20
2018-09-17T00:40:37.081Z,73.20
2018-09-17T00:43:05.389Z,73.30
2018-09-17T00:45:33.505Z,73.40
2018-09-17T00:48:01.717Z,73.40
2018-09-17T00:50:29.845Z,73.30
2018-09-17T00:52:57.950Z,73.20
2018-09-17T00:55:26.091Z,72.90
2018-09-17T00:57:54.221Z,73.00
2018-09-17T01:00:22.386Z,72.90
2018-09-17T01:02:50.721Z,73.10
2018-09-17T01:05:18.889Z,73.60
2018-09-17T01:07:47.086Z,73.80
2018-09-17T01:10:15.193Z,74.20
2018-09-17T01:12:43.306Z,75.10
2018-09-17T01:15:11.447Z,75.10
2018-09-17T01:17:39.575Z,75.40
2018-09-17T01:20:07.893Z,75.50
2018-09-17T01:22:36.002Z,75.90
2018-09-17T01:25:04.130Z,76.10
2018-09-17T01:27:32.248Z,76.20
2018-09-17T01:30:00.381Z,76.40
2018-09-17T01:32:28.493Z,76.40
2018-09-17T01:34:56.598Z,76.60
2018-09-17T01:37:24.711Z,76.90
2018-09-17T01:39:52.831Z,77.10
2018-09-17T01:42:20.939Z,77.50
2018-09-17T01:44:49.052Z,78.40
2018-09-17T01:47:17.228Z,77.80
2018-09-17T01:49:51.926Z,78.00
2018-09-17T01:52:20.055Z,78.10
2018-09-17T01:54:48.193Z,78.00
2018-09-17T01:57:16.374Z,78.20
2018-09-17T01:59:44.486Z,78.30
2018-09-17T02:02:12.598Z,78.60
2018-09-17T02:04:40.721Z,78.60
2018-09-17T02:07:09.037Z,78.80
2018-09-17T02:09:39.502Z,78.90
2018-09-17T02:12:09.097Z,79.30
2018-09-17T02:14:37.301Z,79.40
2018-09-17T02:17:05.743Z,79.60
2018-09-17T02:19:33.879Z,79.60
2018-09-17T02:22:01.996Z,79.60
2018-09-17T02:24:30.127Z,79.70
2018-09-17T02:26:58.379Z,79.90
2018-09-17T02:29:26.616Z,80.40
2018-09-17T02:31:54.815Z,80.90
2018-09-17T02:34:22.962Z,80.90
2018-09-17T02:36:51.078Z,81.00
2018-09-17T02:39:19.286Z,81.00
2018-09-17T02:41:47.391Z,81.30
2018-09-17T02:44:15.515Z,81.70
2018-09-17T02:46:43.742Z,81.80
2018-09-17T02:49:11.890Z,81.90
2018-09-17T02:51:40.010Z,82.10
2018-09-17T02:54:08.232Z,82.20
2018-09-17T02:56:36.337Z,82.40
2018-09-17T02:59:04.440Z,82.30
2018-09-17T03:01:32.559Z,82.30
2018-09-17T03:04:00.667Z,82.20
2018-09-17T03:06:28.781Z,82.20
2018-09-17T03:08:56.891Z,82.40
2018-09-17T03:11:24.998Z,82.20
2018-09-17T03:13:53.113Z,82.40
2018-09-17T03:16:21.245Z,82.50
2018-09-17T03:18:52.770Z,82.80
2018-09-17T03:21:20.906Z,82.90
2018-09-17T03:23:49.194Z,83.10
2018-09-17T03:26:17.694Z,82.90
2018-09-17T03:28:45.874Z,82.90
2018-09-17T03:31:14.009Z,82.90
2018-09-17T03:33:42.194Z,82.40
2018-09-17T03:36:10.346Z,82.90
2018-09-17T03:38:46.952Z,82.90
2018-09-17T03:41:15.841Z,83.10
2018-09-17T03:43:51.579Z,83.20
2018-09-17T03:46:19.851Z,83.20
2018-09-17T03:48:48.054Z,83.30
2018-09-17T03:51:16.517Z,83.20
2018-09-17T03:53:44.638Z,83.20
2018-09-17T03:56:12.797Z,83.30
2018-09-17T03:58:40.918Z,83.50
2018-09-17T04:01:09.018Z,83.60
2018-09-17T04:03:37.129Z,83.60
2018-09-17T04:06:05.243Z,83.70
2018-09-17T04:08:33.840Z,83.80
2018-09-17T04:11:02.025Z,83.70
2018-09-17T04:13:30.135Z,83.70
2018-09-17T04:15:58.249Z,83.80
2018-09-17T04:18:26.374Z,83.90
2018-09-17T04:20:54.606Z,83.90
2018-09-17T04:23:41.438Z,84.70
2018-09-17T04:26:10.881Z,83.90
2018-09-17T04:28:39.338Z,84.00
2018-09-17T04:31:07.524Z,83.90
2018-09-17T04:33:38.206Z,84.20
2018-09-17T04:36:06.579Z,84.30
2018-09-17T04:38:34.718Z,84.30
2018-09-17T04:41:03.118Z,84.50
2018-09-17T04:43:31.234Z,84.50
2018-09-17T04:45:59.817Z,84.30
2018-09-17T04:48:27.949Z,84.50
2018-09-17T04:50:56.147Z,84.90
2018-09-17T04:53:24.342Z,84.90
2018-09-17T04:55:52.538Z,85.00
2018-09-17T04:58:20.761Z,85.20
2018-09-17T05:00:49.577Z,85.10
2018-09-17T05:03:17.703Z,85.30
2018-09-17T05:05:45.825Z,85.40
2018-09-17T05:08:13.934Z,85.30
2018-09-17T05:10:42.035Z,85.30
2018-09-17T05:13:10.206Z,85.10
2018-09-17T05:15:38.245Z,85.10
2018-09-17T05:18:06.616Z,85.00
2018-09-17T05:20:34.958Z,85.10
2018-09-17T05:23:03.059Z,84.90
2018-09-17T05:25:31.298Z,85.00
2018-09-17T05:27:59.426Z,84.90
2018-09-17T05:30:27.552Z,85.00
2018-09-17T05:32:55.709Z,84.90
2018-09-17T05:35:23.873Z,85.00
2018-09-17T05:37:51.974Z,84.80
2018-09-17T05:40:20.248Z,84.70
2018-09-17T05:42:48.383Z,84.40
2018-09-17T05:45:16.490Z,84.40
2018-09-17T05:47:44.642Z,84.20
2018-09-17T05:50:12.738Z,84.20
2018-09-17T05:52:40.854Z,83.90
2018-09-17T05:55:08.955Z,84.00
2018-09-17T05:57:37.106Z,83.70
2018-09-17T06:00:06.576Z,83.60
2018-09-17T06:02:34.794Z,83.60
2018-09-17T06:05:03.022Z,83.60
2018-09-17T06:07:31.138Z,83.70
2018-09-17T06:09:59.296Z,83.70
2018-09-17T06:12:27.419Z,83.60
2018-09-17T06:14:55.594Z,83.60
2018-09-17T06:17:23.756Z,83.50
2018-09-17T06:19:51.803Z,83.40
2018-09-17T06:22:19.914Z,83.30
2018-09-17T06:24:48.050Z,83.30
2018-09-17T06:27:16.166Z,83.30
2018-09-17T06:29:44.287Z,83.20
2018-09-17T06:32:12.458Z,82.80
2018-09-17T06:34:40.578Z,82.50
2018-09-17T06:37:08.679Z,81.90
2018-09-17T06:39:36.835Z,81.40
2018-09-17T06:42:05.014Z,81.20
2018-09-17T06:44:33.127Z,81.00
2018-09-17T06:47:01.235Z,80.90
2018-09-17T06:49:29.370Z,80.40
2018-09-17T06:51:57.479Z,80.10
2018-09-17T06:54:25.631Z,79.80
2018-09-17T06:56:53.732Z,79.50
2018-09-17T06:59:21.842Z,79.00
2018-09-17T07:01:50.055Z,78.70
2018-09-17T07:04:18.195Z,78.40
2018-09-17T07:06:46.306Z,78.10
2018-09-17T07:09:14.442Z,77.50
2018-09-17T07:11:42.706Z,77.30
2018-09-17T07:14:10.976Z,76.50
2018-09-17T07:16:39.217Z,75.70
2018-09-17T07:19:07.388Z,75.00
2018-09-17T07:21:35.510Z,75.00
2018-09-17T07:24:03.662Z,74.40
2018-09-17T07:26:31.796Z,74.00
2018-09-17T07:29:00.484Z,73.50
2018-09-17T07:31:28.594Z,73.40
2018-09-17T07:33:56.722Z,72.90
2018-09-17T07:36:24.923Z,72.70
2018-09-17T07:38:52.972Z,73.50
2018-09-17T07:41:21.071Z,72.30
2018-09-17T07:43:49.191Z,72.40
2018-09-17T07:46:17.319Z,71.70
2018-09-17T07:48:45.434Z,71.30
2018-09-17T07:51:13.582Z,71.10
2018-09-17T07:53:41.714Z,71.00
2018-09-17T07:56:09.877Z,70.70
2018-09-17T07:58:38.000Z,70.70
2018-09-17T08:01:06.178Z,71.10
2018-09-17T08:03:34.282Z,70.60
2018-09-17T08:06:02.431Z,70.40
2018-09-17T08:08:30.614Z,69.70
2018-09-17T08:10:58.784Z,69.50
2018-09-17T08:13:26.915Z,69.70
2018-09-17T08:15:55.062Z,69.50
2018-09-17T08:18:23.197Z,68.40
2018-09-17T08:20:51.331Z,68.30
2018-09-17T08:23:19.458Z,67.40
2018-09-17T08:25:47.600Z,66.70
2018-09-17T08:28:15.747Z,66.10
2018-09-17T08:30:43.883Z,66.30
2018-09-17T08:33:11.987Z,66.00
2018-09-17T08:35:40.128Z,65.00
2018-09-17T08:38:08.325Z,64.30
2018-09-17T08:40:36.383Z,64.10
2018-09-17T08:43:04.501Z,63.80
2018-09-17T08:45:32.692Z,64.40
2018-09-17T08:48:00.801Z,62.70
2018-09-17T08:50:28.926Z,61.80
2018-09-17T08:52:57.094Z,61.70
2018-09-17T08:55:30.708Z,60.70
2018-09-17T08:58:04.215Z,60.30
2018-09-17T09:00:37.879Z,59.70
2018-09-17T09:03:11.334Z,59.00
2018-09-17T09:05:40.934Z,58.70
2018-09-17T09:08:09.294Z,59.10
2018-09-17T09:10:42.834Z,58.70
2018-09-17T09:13:16.450Z,57.20
2018-09-17T09:15:44.854Z,56.50
2018-09-17T09:18:13.002Z,56.10
2018-09-17T09:20:41.832Z,56.20
2018-09-17T09:23:10.283Z,55.90
2018-09-17T09:25:38.424Z,54.70
2018-09-17T09:28:06.592Z,54.30
2018-09-17T09:30:34.816Z,54.30
2018-09-17T09:33:02.942Z,54.00
2018-09-17T09:35:31.059Z,53.40
2018-09-17T09:37:59.178Z,52.30
2018-09-17T09:40:27.354Z,51.30
2018-09-17T09:42:55.489Z,49.50
2018-09-17T09:45:23.638Z,48.40
2018-09-17T09:47:51.761Z,47.40
2018-09-17T09:50:19.954Z,46.90
2018-09-17T09:52:48.075Z,46.40
2018-09-17T09:55:16.194Z,45.70
2018-09-17T09:57:44.306Z,45.70
2018-09-17T10:00:17.886Z,45.20
2018-09-17T10:02:52.305Z,44.30
2018-09-17T10:05:20.870Z,44.00
2018-09-17T10:07:49.084Z,42.70
2018-09-17T10:10:22.658Z,43.80
2018-09-17T10:12:56.284Z,41.90
2018-09-17T10:15:29.882Z,41.30
2018-09-17T10:18:03.865Z,41.70
2018-09-17T10:20:32.007Z,42.00
2018-09-17T10:23:00.186Z,41.30
2018-09-17T10:25:28.326Z,40.60
2018-09-17T10:27:56.551Z,39.40
2018-09-17T10:30:24.814Z,38.80
2018-09-17T10:32:52.934Z,38.00
2018-09-17T10:35:21.069Z,37.70
2018-09-17T10:37:49.198Z,37.10
2018-09-17T10:40:17.318Z,36.60
2018-09-17T10:42:45.470Z,36.80
2018-09-17T10:45:13.645Z,36.70
2018-09-17T10:47:41.795Z,36.30
2018-09-17T10:50:10.036Z,35.90
2018-09-17T10:52:38.207Z,36.00
2018-09-17T10:55:07.257Z,35.30
2018-09-17T10:57:35.421Z,35.20
2018-09-17T11:00:03.560Z,35.20
2018-09-17T11:02:31.782Z,35.00
2018-09-17T11:05:00.082Z,35.10
2018-09-17T11:07:28.335Z,34.80
2018-09-17T11:09:56.469Z,34.20
2018-09-17T11:12:24.779Z,33.90
2018-09-17T11:14:52.898Z,33.70
2018-09-17T11:17:21.128Z,33.10
2018-09-17T11:19:49.251Z,33.10
2018-09-17T11:22:17.403Z,32.60
2018-09-17T11:24:45.534Z,32.80
2018-09-17T11:27:13.664Z,32.60
2018-09-17T11:29:41.827Z,32.20
2018-09-17T11:32:10.298Z,32.00
2018-09-17T11:34:38.498Z,32.10
2018-09-17T11:37:06.830Z,30.80
2018-09-17T11:39:34.960Z,30.50
2018-09-17T11:42:03.162Z,30.00
2018-09-17T11:44:31.313Z,30.00
2018-09-17T11:46:59.604Z,29.90
2018-09-17T11:49:27.922Z,30.00
2018-09-17T11:51:56.070Z,29.90
2018-09-17T11:54:24.260Z,30.00
2018-09-17T11:56:52.494Z,29.20
2018-09-17T11:59:20.634Z,29.60
2018-09-17T12:01:50.868Z,28.80
2018-09-17T12:04:24.567Z,28.70
2018-09-17T12:06:58.154Z,28.50
2018-09-17T12:09:26.335Z,28.30
2018-09-17T12:11:54.462Z,28.10
2018-09-17T12:14:22.601Z,27.90
2018-09-17T12:16:50.766Z,27.50
2018-09-17T12:19:18.865Z,27.20
2018-09-17T12:21:47.064Z,26.90
2018-09-17T12:24:15.163Z,26.70
2018-09-17T12:26:43.392Z,26.30
2018-09-17T12:29:11.537Z,25.90
2018-09-17T12:31:39.655Z,25.90
2018-09-17T12:34:07.791Z,25.60
2018-09-17T12:36:35.898Z,25.40
2018-09-17T12:39:06.890Z,25.40
2018-09-17T12:41:35.027Z,24.70
2018-09-17T12:44:03.382Z,23.90
2018-09-17T12:46:31.534Z,23.80
2018-09-17T12:48:59.711Z,23.70
2018-09-17T12:51:27.861Z,23.20
2018-09-17T12:53:56.021Z,23.30
2018-09-17T12:56:24.202Z,22.80
2018-09-17T12:58:52.992Z,23.00
2018-09-17T13:01:21.147Z,23.00
2018-09-17T13:03:49.314Z,22.80
2018-09-17T13:06:17.519Z,22.30
2018-09-17T13:08:45.678Z,22.30
2018-09-17T13:11:13.861Z,22.60
2018-09-17T13:13:41.994Z,23.20
2018-09-17T13:16:10.114Z,23.40
2018-09-17T13:18:38.259Z,24.00
2018-09-17T13:21:06.459Z,24.00
2018-09-17T13:23:34.614Z,24.10
2018-09-17T13:26:02.772Z,23.90
2018-09-17T13:28:30.902Z,23.80
2018-09-17T13:30:59.055Z,24.10
2018-09-17T13:33:27.203Z,23.70
2018-09-17T13:35:55.290Z,23.70
2018-09-17T13:38:23.444Z,23.50
2018-09-17T13:40:51.638Z,23.50
2018-09-17T13:43:19.783Z,23.70
2018-09-17T13:45:47.976Z,23.60
2018-09-17T13:48:16.116Z,24.10
2018-09-17T13:50:44.244Z,23.90
2018-09-17T13:53:12.426Z,23.90
2018-09-17T13:55:40.538Z,23.90
2018-09-17T13:58:08.723Z,23.90
2018-09-17T14:00:36.867Z,23.80
2018-09-17T14:03:05.037Z,23.40
2018-09-17T14:05:33.219Z,23.00
2018-09-17T14:08:01.348Z,22.40
2018-09-17T14:10:29.513Z,22.30
2018-09-17T14:12:57.622Z,21.40
2018-09-17T14:15:25.759Z,20.70
2018-09-17T14:17:53.931Z,19.60
2018-09-17T14:20:22.087Z,19.80
2018-09-17T14:22:50.216Z,19.40
2018-09-17T14:25:18.314Z,19.10
2018-09-17T14:27:46.452Z,19.10
2018-09-17T14:30:14.573Z,19.30
2018-09-17T14:32:48.235Z,19.40
2018-09-17T14:35:16.336Z,19.80
2018-09-17T14:37:44.594Z,20.40
2018-09-17T14:40:12.867Z,20.60
2018-09-17T14:42:40.978Z,20.40
2018-09-17T14:45:09.130Z,20.80
2018-09-17T14:47:37.256Z,20.60
2018-09-17T14:50:05.376Z,21.00
2018-09-17T14:52:33.480Z,20.70
2018-09-17T14:55:01.594Z,20.60
2018-09-17T14:57:29.785Z,20.60
2018-09-17T14:59:57.882Z,20.90
2018-09-17T15:02:26.441Z,20.90
2018-09-17T15:04:54.651Z,20.40
2018-09-17T15:07:22.766Z,20.90
2018-09-17T15:09:50.914Z,20.60
2018-09-17T15:12:19.013Z,20.10
2018-09-17T15:14:47.143Z,20.40
2018-09-17T15:17:15.279Z,20.50
2018-09-17T15:19:43.427Z,20.70
2018-09-17T15:22:11.525Z,20.90
2018-09-17T15:24:39.629Z,20.90
2018-09-17T15:27:07.757Z,21.40
2018-09-17T15:29:35.876Z,21.20
2018-09-17T15:32:03.962Z,21.40
2018-09-17T15:34:32.187Z,21.00
2018-09-17T15:37:00.182Z,21.30
2018-09-17T15:39:28.311Z,21.80
2018-09-17T15:41:56.453Z,21.00
2018-09-17T15:44:24.681Z,21.20
2018-09-17T15:46:52.812Z,21.90
2018-09-17T15:49:20.890Z,21.30
2018-09-17T15:51:49.009Z,21.30
2018-09-17T15:54:17.135Z,21.30
2018-09-17T15:56:45.258Z,21.80
2018-09-17T15:59:13.434Z,21.30
2018-09-17T16:01:41.562Z,21.20
2018-09-17T16:04:09.690Z,21.40
2018-09-17T16:06:38.679Z,21.60
2018-09-17T16:09:07.435Z,21.40
2018-09-17T16:11:35.834Z,21.30
2018-09-17T16:14:04.079Z,21.10
2018-09-17T16:16:32.150Z,21.40
2018-09-17T16:19:00.274Z,21.50
2018-09-17T16:21:28.382Z,21.60
2018-09-17T16:23:56.499Z,21.80
2018-09-17T16:26:24.622Z,21.90
2018-09-17T16:28:52.729Z,22.00
2018-09-17T16:31:20.856Z,22.20
2018-09-17T16:33:49.270Z,22.40
2018-09-17T16:36:17.386Z,22.40
2018-09-17T16:38:45.780Z,23.10
2018-09-17T16:41:13.975Z,22.80
2018-09-17T16:43:42.109Z,23.00
2018-09-17T16:46:10.338Z,23.30
2018-09-17T16:48:38.478Z,23.90
2018-09-17T16:51:06.650Z,24.00
2018-09-17T16:53:35.006Z,24.40
2018-09-17T16:56:02.994Z,24.50
2018-09-17T16:58:31.085Z,24.60
2018-09-17T17:00:59.214Z,24.80
2018-09-17T17:03:27.428Z,25.40
2018-09-17T17:05:55.668Z,25.60
2018-09-17T17:08:23.764Z,26.40
2018-09-17T17:10:52.029Z,26.40
2018-09-17T17:13:20.064Z,26.40
2018-09-17T17:15:50.297Z,27.50
2018-09-17T17:18:20.898Z,28.00
2018-09-17T17:20:49.118Z,27.90
2018-09-17T17:23:17.218Z,28.10
2018-09-17T17:25:45.402Z,28.60
2018-09-17T17:28:13.569Z,29.00
2018-09-17T17:30:41.630Z,29.30
2018-09-17T17:33:09.800Z,29.50
2018-09-17T17:35:38.025Z,29.80
2018-09-17T17:38:06.401Z,30.40
2018-09-17T17:40:34.707Z,31.60
2018-09-17T17:43:02.683Z,32.10
2018-09-17T17:45:30.890Z,32.30
2018-09-17T17:47:59.152Z,32.70
2018-09-17T17:50:27.307Z,32.30
2018-09-17T17:52:55.426Z,31.70
2018-09-17T17:55:23.564Z,31.80
2018-09-17T17:57:51.739Z,31.80
2018-09-17T18:00:19.823Z,33.00
2018-09-17T18:02:47.940Z,33.80
2018-09-17T18:05:16.091Z,34.50
2018-09-17T18:07:44.252Z,35.70
2018-09-17T18:10:12.438Z,36.00
2018-09-17T18:12:40.560Z,36.00
2018-09-17T18:15:08.676Z,36.50
2018-09-17T18:17:36.783Z,37.40
2018-09-17T18:20:06.319Z,38.00
2018-09-17T18:22:34.447Z,38.40
2018-09-17T18:25:02.594Z,39.10
2018-09-17T18:27:30.719Z,38.70
2018-09-17T18:29:58.870Z,38.40
2018-09-17T18:32:27.003Z,38.70
2018-09-17T18:34:55.110Z,39.30
2018-09-17T18:37:23.250Z,39.70
2018-09-17T18:39:51.416Z,40.40
2018-09-17T18:42:19.590Z,40.50
2018-09-17T18:44:47.648Z,40.80
2018-09-17T18:47:15.786Z,41.20
2018-09-17T18:49:43.890Z,42.00
2018-09-17T18:52:12.024Z,42.30
2018-09-17T18:54:40.149Z,42.50
2018-09-17T18:57:08.320Z,43.00
2018-09-17T18:59:36.722Z,43.40
2018-09-17T19:02:05.120Z,43.90
2018-09-17T19:04:33.370Z,44.20
2018-09-17T19:07:01.677Z,44.30
2018-09-17T19:09:35.243Z,45.00
2018-09-17T19:12:03.603Z,45.40
2018-09-17T19:14:36.843Z,46.10
2018-09-17T19:17:10.370Z,46.50
2018-09-17T19:19:38.467Z,46.80
2018-09-17T19:22:12.299Z,47.00
2018-09-17T19:24:40.270Z,47.40
2018-09-17T19:27:08.562Z,47.40
2018-09-17T19:29:36.719Z,47.60
2018-09-17T19:32:04.900Z,47.70
2018-09-17T19:34:32.954Z,47.70
2018-09-17T19:37:06.499Z,48.00
2018-09-17T19:39:40.189Z,48.40
2018-09-17T19:42:08.634Z,48.70
2018-09-17T19:44:36.679Z,49.00
2018-09-17T19:47:04.822Z,49.30
2018-09-17T19:49:33.143Z,49.40
2018-09-17T19:52:06.815Z,49.70
2018-09-17T19:54:35.022Z,49.90
2018-09-17T19:57:07.387Z,50.20
2018-09-17T19:59:41.159Z,50.30
2018-09-17T20:02:09.279Z,50.50
2018-09-17T20:04:42.961Z,50.50
2018-09-17T20:07:11.236Z,50.40
2018-09-17T20:09:39.361Z,51.00
2018-09-17T20:12:07.488Z,50.80
2018-09-17T20:14:35.626Z,50.80
2018-09-17T20:17:03.748Z,50.80
2018-09-17T20:19:31.974Z,51.00
2018-09-17T20:22:00.107Z,51.20
2018-09-17T20:24:28.217Z,51.30
2018-09-17T20:26:56.342Z,51.50
2018-09-17T20:29:24.451Z,52.00
2018-09-17T20:31:52.734Z,51.90
2018-09-17T20:34:20.778Z,52.00
2018-09-17T20:36:48.928Z,52.30
2018-09-17T20:39:17.034Z,52.20
2018-09-17T20:41:45.184Z,52.40
2018-09-17T20:44:13.359Z,52.50
2018-09-17T20:46:41.525Z,52.70
2018-09-17T20:49:09.723Z,53.50
2018-09-17T20:51:37.855Z,53.20
2018-09-17T20:54:06.071Z,53.30
2018-09-17T20:56:34.195Z,53.40
2018-09-17T20:59:02.349Z,53.70
2018-09-17T21:01:30.536Z,53.90
2018-09-17T21:03:58.606Z,53.90
2018-09-17T21:06:26.808Z,54.10
2018-09-17T21:08:55.010Z,54.20
2018-09-17T21:11:23.514Z,54.40
2018-09-17T21:13:51.943Z,54.70
2018-09-17T21:16:20.071Z,55.50
2018-09-17T21:18:48.254Z,55.00
2018-09-17T21:21:18.166Z,55.20
2018-09-17T21:23:46.777Z,55.20
2018-09-17T21:26:14.958Z,55.40
2018-09-17T21:28:43.207Z,55.70
2018-09-17T21:31:11.554Z,55.80
2018-09-17T21:33:39.695Z,55.60
2018-09-17T21:36:07.912Z,55.70
2018-09-17T21:38:36.051Z,55.80
2018-09-17T21:41:04.180Z,55.50
2018-09-17T21:43:32.288Z,55.50
2018-09-17T21:46:00.386Z,55.80
2018-09-17T21:48:28.541Z,55.80
2018-09-17T21:50:56.681Z,56.00
2018-09-17T21:53:24.875Z,56.00
2018-09-17T21:55:52.995Z,56.00
2018-09-17T21:58:21.147Z,56.30
2018-09-17T22:00:54.773Z,56.70
2018-09-17T22:03:22.882Z,57.00
2018-09-17T22:05:51.007Z,57.60
2018-09-17T22:08:19.142Z,57.60
2018-09-17T22:10:47.246Z,58.00
2018-09-17T22:13:15.392Z,58.10
2018-09-17T22:15:43.512Z,58.70
2018-09-17T22:18:11.662Z,58.70
2018-09-17T22:20:39.944Z,58.80
2018-09-17T22:23:08.083Z,58.80
2018-09-17T22:25:36.207Z,59.90
2018-09-17T22:28:04.346Z,59.50
2018-09-17T22:30:32.483Z,59.70
2018-09-17T22:33:00.604Z,59.80
2018-09-17T22:35:28.839Z,60.10
2018-09-17T22:37:57.024Z,60.60
2018-09-17T22:40:25.863Z,61.00
2018-09-17T22:42:53.983Z,61.20
2018-09-17T22:45:22.100Z,61.60
2018-09-17T22:47:50.210Z,61.80
2018-09-17T22:50:18.357Z,62.00
2018-09-17T22:52:46.503Z,62.40
2018-09-17T22:55:14.636Z,62.50
2018-09-17T22:57:42.853Z,62.70
2018-09-17T23:00:10.974Z,62.90
2018-09-17T23:02:39.122Z,63.10
2018-09-17T23:05:07.338Z,63.60
2018-09-17T23:07:35.471Z,63.70
2018-09-17T23:10:03.879Z,63.80
2018-09-17T23:12:32.009Z,63.90
2018-09-17T23:15:00.141Z,64.00
2018-09-17T23:17:28.246Z,64.20
2018-09-17T23:19:56.468Z,64.30
2018-09-17T23:22:24.569Z,64.40
2018-09-17T23:24:52.711Z,64.60
2018-09-17T23:27:20.840Z,64.80
2018-09-17T23:29:48.971Z,64.90
2018-09-17T23:32:17.169Z,65.10
2018-09-17T23:34:45.294Z,65.10
2018-09-17T23:37:13.415Z,65.40
2018-09-17T23:39:41.598Z,65.40
2018-09-17T23:42:09.709Z,65.20
2018-09-17T23:44:37.850Z,65.30
2018-09-17T23:47:06.679Z,65.20
2018-09-17T23:49:34.818Z,65.70
2018-09-17T23:52:02.939Z,65.20
2018-09-17T23:54:31.094Z,65.10
2018-09-17T23:56:59.206Z,64.90
2018-09-17T23:59:27.345Z,65.00
